Time;durP1;ratioP1;P1;durP2;ratioP2;P2;SDS_P1;SDS_P2;PMS_P1;PMS_P2;Temp;Humidity;BMP_temperature;BMP_pressure;BME280_temperature;BME280_humidity;BME280_pressure;Samples;Min_cycle;Max_cycle;Signal;HPM_P1;HPM_P2
2024/01/05 00:00:37;;;;;;;4.88;4.28;;;;;;;-142.91;100.00;56616.03;5007093;28;20203;-71
2024/01/05 00:03:05;;;;;;;4.78;3.75;;;;;;;-142.91;100.00;56616.03;5015862;28;20292;-70
2024/01/05 00:05:32;;;;;;;8.00;4.40;;;;;;;-142.91;100.00;56616.03;5008003;28;20667;-70
2024/01/05 00:07:58;;;;;;;10.32;4.35;;;;;;;-142.91;100.00;56616.03;5013248;28;20295;-70
2024/01/05 00:10:25;;;;;;;4.75;4.30;;;;;;;-142.91;100.00;56616.03;5013693;28;20652;-71
2024/01/05 00:12:52;;;;;;;4.25;3.95;;;;;;;-142.91;100.00;56616.03;5009302;28;20232;-70
2024/01/05 00:15:18;;;;;;;4.20;3.80;;;;;;;-142.91;100.00;56616.03;5010468;28;20638;-71
2024/01/05 00:17:45;;;;;;;5.93;3.90;;;;;;;-142.91;100.00;56616.03;5019828;28;20200;-71
2024/01/05 00:20:14;;;;;;;5.55;4.20;;;;;;;-142.91;100.00;56616.03;5012168;28;20628;-70
2024/01/05 00:22:41;;;;;;;6.70;4.32;;;;;;;-142.91;100.00;56616.03;5017077;28;20316;-70
2024/01/05 00:25:08;;;;;;;5.32;4.30;;;;;;;-142.91;100.00;56616.03;5020762;28;20199;-71
2024/01/05 00:27:35;;;;;;;8.13;4.85;;;;;;;-142.91;100.00;56616.03;5012654;28;20236;-71
2024/01/05 00:30:03;;;;;;;4.75;4.22;;;;;;;-142.91;100.00;56616.03;5014063;28;20204;-71
2024/01/05 00:32:30;;;;;;;8.93;4.63;;;;;;;-142.91;100.00;56616.03;5009941;28;20295;-71
2024/01/05 00:34:56;;;;;;;6.47;5.10;;;;;;;-142.91;100.00;56616.03;5013263;28;20283;-71
2024/01/05 00:37:24;;;;;;;6.03;4.57;;;;;;;-142.91;100.00;56616.03;5012520;28;20215;-72
2024/01/05 00:39:51;;;;;;;4.90;3.83;;;;;;;-142.91;100.00;56616.03;5018319;28;20294;-71
2024/01/05 00:42:18;;;;;;;5.25;4.63;;;;;;;-142.91;100.00;56616.03;5017534;28;20240;-72
2024/01/05 00:44:44;;;;;;;4.75;4.13;;;;;;;-142.91;100.00;56616.03;5019753;28;20283;-70
2024/01/05 00:47:11;;;;;;;4.38;3.90;;;;;;;-142.91;100.00;56616.03;5018552;28;20295;-71
2024/01/05 00:49:38;;;;;;;5.28;3.70;;;;;;;-142.91;100.00;56616.03;5016460;28;20672;-71
2024/01/05 00:52:05;;;;;;;6.30;4.80;;;;;;;-142.91;100.00;56616.03;5014865;28;20206;-71
2024/01/05 00:54:33;;;;;;;5.60;4.40;;;;;;;-142.91;100.00;56616.03;5017722;28;20295;-71
2024/01/05 00:57:00;;;;;;;5.05;4.28;;;;;;;-142.91;100.00;56616.03;5015992;28;20315;-71
2024/01/05 00:59:26;;;;;;;4.28;3.97;;;;;;;-142.91;100.00;56616.03;5013565;28;20307;-72
2024/01/05 01:01:53;;;;;;;5.57;5.07;;;;;;;-142.91;100.00;56616.03;5015103;28;20286;-72
2024/01/05 01:04:20;;;;;;;4.68;3.97;;;;;;;-142.91;100.00;56616.03;5017040;28;20220;-71
2024/01/05 01:06:46;;;;;;;7.60;4.55;;;;;;;-142.91;100.00;56616.03;5019844;28;20230;-71
2024/01/05 01:09:13;;;;;;;5.32;4.45;;;;;;;-142.91;100.00;56616.03;5020004;28;20232;-71
2024/01/05 01:11:41;;;;;;;5.95;4.25;;;;;;;-142.91;100.00;56616.03;5012380;28;20251;-71
2024/01/05 01:14:08;;;;;;;4.90;4.40;;;;;;;-142.91;100.00;56616.03;5013568;28;20294;-71
2024/01/05 01:16:34;;;;;;;4.80;4.13;;;;;;;-142.91;100.00;56616.03;5017129;28;20302;-71
2024/01/05 01:19:01;;;;;;;4.75;3.97;;;;;;;-142.91;100.00;56616.03;5022830;28;20290;-72
2024/01/05 01:21:27;;;;;;;4.07;3.72;;;;;;;-142.91;100.00;56616.03;5018180;28;20310;-71
2024/01/05 01:23:54;;;;;;;7.78;4.15;;;;;;;-142.91;100.00;56616.03;5020548;28;20286;-72
2024/01/05 01:26:21;;;;;;;4.65;3.97;;;;;;;-142.91;100.00;56616.03;5015747;28;20240;-72
2024/01/05 01:28:49;;;;;;;4.80;3.85;;;;;;;-142.91;100.00;56616.03;5012608;28;20239;-71
2024/01/05 01:31:16;;;;;;;6.85;4.05;;;;;;;-142.91;100.00;56616.03;5018442;28;20273;-71
2024/01/05 01:33:43;;;;;;;4.85;3.83;;;;;;;-142.91;100.00;56616.03;5019760;28;20287;-72
2024/01/05 01:36:10;;;;;;;4.13;3.72;;;;;;;-142.91;100.00;56616.03;5020835;28;20800;-72
2024/01/05 01:38:36;;;;;;;5.45;4.40;;;;;;;-142.91;100.00;56616.03;5013539;28;20411;-72
2024/01/05 01:41:03;;;;;;;5.38;4.00;;;;;;;-142.91;100.00;56616.03;5015382;28;20290;-70
2024/01/05 01:43:30;;;;;;;6.40;4.75;;;;;;;-142.91;100.00;56616.03;5016523;28;20265;-71
2024/01/05 01:46:01;;;;;;;7.72;4.47;;;;;;;-142.91;100.00;56616.03;5014688;28;20204;-70
2024/01/05 01:48:29;;;;;;;4.00;3.58;;;;;;;-142.91;100.00;56616.03;5016675;28;20613;-70
2024/01/05 01:50:56;;;;;;;5.38;4.20;;;;;;;-142.91;100.00;56616.03;5014703;28;20656;-70
2024/01/05 01:53:25;;;;;;;4.57;4.18;;;;;;;-142.91;100.00;56616.03;5008562;28;20741;-70
2024/01/05 01:55:53;;;;;;;4.60;4.20;;;;;;;-142.91;100.00;56616.03;5009393;28;20855;-70
2024/01/05 01:58:22;;;;;;;4.10;3.70;;;;;;;-142.91;100.00;56616.03;5014646;28;20283;-70
2024/01/05 02:00:50;;;;;;;5.97;4.22;;;;;;;-142.91;100.00;56616.03;5013999;28;20315;-69
2024/01/05 02:03:18;;;;;;;4.80;4.20;;;;;;;-142.91;100.00;56616.03;5019410;28;20295;-70
2024/01/05 02:05:47;;;;;;;7.38;4.18;;;;;;;-142.91;100.00;56616.03;5012007;28;20205;-70
2024/01/05 02:08:14;;;;;;;4.97;3.83;;;;;;;-142.91;100.00;56616.03;5014028;28;20284;-70
2024/01/05 02:10:41;;;;;;;4.93;4.07;;;;;;;-142.91;100.00;56616.03;5017410;28;20286;-71
2024/01/05 02:13:09;;;;;;;5.15;3.83;;;;;;;-142.91;100.00;56616.03;5017897;28;20590;-69
2024/01/05 02:15:35;;;;;;;5.15;4.80;;;;;;;-142.91;100.00;56616.03;5019310;28;20227;-70
2024/01/05 02:18:10;;;;;;;3.95;3.67;;;;;;;-142.91;100.00;56616.03;5019828;28;20291;-70
2024/01/05 02:20:38;;;;;;;4.35;4.05;;;;;;;-142.91;100.00;56616.03;5010690;28;20676;-70
2024/01/05 02:23:08;;;;;;;6.53;3.88;;;;;;;-142.91;100.00;56616.03;5010248;28;20236;-71
2024/01/05 02:25:37;;;;;;;6.28;3.67;;;;;;;-142.91;100.00;56616.03;5009804;28;20287;-71
2024/01/05 02:28:04;;;;;;;7.90;4.40;;;;;;;-142.91;100.00;56616.03;5020471;28;20291;-70
2024/01/05 02:30:32;;;;;;;6.65;4.30;;;;;;;-142.91;100.00;56616.03;5017128;28;20205;-70
2024/01/05 02:32:58;;;;;;;4.40;3.83;;;;;;;-142.91;100.00;56616.03;5012935;28;20709;-71
2024/01/05 02:35:25;;;;;;;5.32;4.53;;;;;;;-142.91;100.00;56616.03;5017653;28;20243;-70
2024/01/05 02:37:51;;;;;;;4.72;4.15;;;;;;;;;;5012510;28;20743;-70
2024/01/05 02:40:18;;;;;;;6.13;3.83;;;;;;;-142.91;100.00;56616.03;5014569;28;20318;-71
2024/01/05 02:42:46;;;;;;;4.57;3.65;;;;;;;-142.91;100.00;56616.03;5019668;28;20286;-72
2024/01/05 02:45:13;;;;;;;6.97;3.50;;;;;;;-142.91;100.00;56616.03;5019967;28;20197;-70
2024/01/05 02:47:40;;;;;;;3.92;3.42;;;;;;;-142.91;100.00;56616.03;5017067;28;20613;-70
2024/01/05 02:50:08;;;;;;;7.25;4.55;;;;;;;-142.91;100.00;56616.03;5018199;28;20322;-69
2024/01/05 02:52:34;;;;;;;6.07;3.63;;;;;;;-142.91;100.00;56616.03;5013910;28;20247;-70
2024/01/05 02:55:01;;;;;;;6.65;4.10;;;;;;;-142.91;100.00;56616.03;5016731;28;20295;-70
2024/01/05 02:57:27;;;;;;;4.70;3.90;;;;;;;-142.91;100.00;56616.03;5013166;28;21068;-71
2024/01/05 02:59:55;;;;;;;6.65;3.85;;;;;;;-142.91;100.00;56616.03;5017746;28;20242;-71
2024/01/05 03:02:22;;;;;;;4.07;3.70;;;;;;;-142.91;100.00;56616.03;5020757;28;20296;-71
2024/01/05 03:04:50;;;;;;;5.85;3.80;;;;;;;-142.91;100.00;56616.03;5020834;28;20302;-71
2024/01/05 03:07:17;;;;;;;6.47;3.92;;;;;;;-142.91;100.00;56616.03;5021707;28;20261;-71
2024/01/05 03:09:44;;;;;;;4.68;4.28;;;;;;;-142.91;100.00;56616.03;5020718;28;20288;-71
2024/01/05 03:12:10;;;;;;;6.63;3.55;;;;;;;-142.91;100.00;56616.03;5017405;28;20303;-70
2024/01/05 03:14:37;;;;;;;4.18;3.90;;;;;;;-142.91;100.00;56616.03;5017647;28;20287;-69
2024/01/05 03:17:05;;;;;;;4.85;4.28;;;;;;;-142.91;100.00;56616.03;5016579;28;20243;-70
2024/01/05 03:19:32;;;;;;;4.68;4.28;;;;;;;-142.91;100.00;56616.03;5014099;28;20293;-70
2024/01/05 03:21:59;;;;;;;6.40;4.55;;;;;;;-142.91;100.00;56616.03;5015148;28;20243;-70
2024/01/05 03:24:26;;;;;;;5.70;4.38;;;;;;;-142.91;100.00;56616.03;5011587;28;20357;-69
2024/01/05 03:26:52;;;;;;;5.45;4.15;;;;;;;-142.91;100.00;56616.03;5011237;28;20287;-70
2024/01/05 03:29:19;;;;;;;6.47;4.22;;;;;;;-142.91;100.00;56616.03;5013034;28;20295;-70
2024/01/05 03:31:46;;;;;;;5.93;4.22;;;;;;;-142.91;100.00;56616.03;5012325;28;20776;-70
2024/01/05 03:34:14;;;;;;;14.45;4.63;;;;;;;-142.91;100.00;56616.03;5016108;28;20295;-70
2024/01/05 03:36:41;;;;;;;7.72;4.50;;;;;;;-142.91;100.00;56616.03;5014565;28;20319;-69
2024/01/05 03:39:08;;;;;;;4.80;4.40;;;;;;;-142.91;100.00;56616.03;5009688;28;20313;-71
2024/01/05 03:41:35;;;;;;;8.90;5.30;;;;;;;-142.91;100.00;56616.03;5013694;28;20335;-70
2024/01/05 03:44:02;;;;;;;4.40;4.10;;;;;;;-142.91;100.00;56616.03;5014710;28;20290;-69
2024/01/05 03:46:28;;;;;;;6.65;5.85;;;;;;;-142.91;100.00;56616.03;5015664;28;20243;-70
2024/01/05 03:48:55;;;;;;;7.43;5.53;;;;;;;-142.91;100.00;56616.03;5009773;28;20291;-69
2024/01/05 03:51:23;;;;;;;8.98;5.53;;;;;;;-142.91;100.00;56616.03;5009673;28;20330;-70
2024/01/05 03:53:50;;;;;;;6.65;5.22;;;;;;;-142.91;100.00;56616.03;5018624;28;20290;-70
2024/01/05 03:56:16;;;;;;;7.20;4.78;;;;;;;-142.91;100.00;56616.03;5013741;28;20574;-71
2024/01/05 03:58:43;;;;;;;9.07;5.22;;;;;;;-142.91;100.00;56616.03;5014639;28;20286;-70
2024/01/05 04:01:09;;;;;;;6.20;5.20;;;;;;;-142.91;100.00;56616.03;5011359;28;20653;-70
2024/01/05 04:03:36;;;;;;;10.98;5.50;;;;;;;-142.91;100.00;56616.03;5012784;28;20279;-69
2024/01/05 04:06:04;;;;;;;4.43;3.72;;;;;;;-142.91;100.00;56616.03;5010447;28;20713;-70
2024/01/05 04:08:32;;;;;;;11.13;4.85;;;;;;;-142.91;100.00;56616.03;5010787;28;20495;-71
2024/01/05 04:10:59;;;;;;;12.80;5.88;;;;;;;-142.91;100.00;56616.03;5009791;28;20287;-70
2024/01/05 04:13:26;;;;;;;7.95;4.82;;;;;;;-142.91;100.00;56616.03;5014513;28;20737;-71
2024/01/05 04:15:52;;;;;;;4.82;4.38;;;;;;;23.29;100.00;56616.03;5020219;28;20298;-72
2024/01/05 04:18:19;;;;;;;6.10;5.30;;;;;;;-142.91;100.00;56616.03;5016686;28;20302;-69
2024/01/05 04:20:45;;;;;;;4.05;3.75;;;;;;;-142.91;100.00;56616.03;5018825;28;20311;-70
2024/01/05 04:23:12;;;;;;;6.22;5.25;;;;;;;-142.91;100.00;56616.03;5020225;28;20649;-70
2024/01/05 04:25:40;;;;;;;7.15;4.45;;;;;;;-142.91;100.00;56616.03;5024638;28;20283;-72
2024/01/05 04:28:06;;;;;;;4.72;3.90;;;;;;;-142.91;100.00;56616.03;5022818;28;20618;-70
2024/01/05 04:30:33;;;;;;;5.68;4.05;;;;;;;-142.91;100.00;56616.03;5023398;28;20291;-70
2024/01/05 04:33:00;;;;;;;6.72;4.03;;;;;;;-142.91;100.00;56616.03;5021085;28;20307;-71
2024/01/05 04:35:26;;;;;;;10.32;4.97;;;;;;;-142.91;100.00;56616.03;5017885;28;20680;-72
2024/01/05 04:37:53;;;;;;;7.88;5.05;;;;;;;-142.91;100.00;56616.03;5013531;28;20319;-70
2024/01/05 04:40:20;;;;;;;9.90;5.07;;;;;;;-142.91;100.00;56616.03;5014967;28;21477;-70
2024/01/05 04:42:48;;;;;;;6.03;5.47;;;;;;;-142.91;100.00;56616.03;5018816;28;20295;-72
2024/01/05 04:45:16;;;;;;;9.65;5.78;;;;;;;-142.91;100.00;56616.03;5017690;28;20288;-70
2024/01/05 04:47:46;;;;;;;12.13;6.70;;;;;;;-142.91;100.00;56616.03;5014891;28;20299;-71
2024/01/05 04:50:12;;;;;;;7.60;5.90;;;;;;;-142.91;100.00;56616.03;5023337;28;20231;-71
2024/01/05 04:52:39;;;;;;;9.93;6.20;;;;;;;-142.91;100.00;56616.03;5016259;28;20242;-70
2024/01/05 04:55:06;;;;;;;10.43;6.55;;;;;;;-142.91;100.00;56616.03;5019502;28;20291;-70
2024/01/05 04:57:33;;;;;;;12.75;9.60;;;;;;;-142.91;100.00;56616.03;5013398;28;20796;-72
2024/01/05 05:00:01;;;;;;;11.80;8.88;;;;;;;-142.91;100.00;56616.03;5015281;28;20286;-71
2024/01/05 05:02:28;;;;;;;10.13;7.22;;;;;;;-142.91;100.00;56616.03;5018221;28;20236;-71
2024/01/05 05:04:54;;;;;;;13.00;7.78;;;;;;;-142.91;100.00;56616.03;5016466;28;20287;-70
2024/01/05 05:07:21;;;;;;;15.15;9.75;;;;;;;-142.91;100.00;56616.03;5019485;28;20670;-70
2024/01/05 05:09:49;;;;;;;16.75;9.90;;;;;;;-142.91;100.00;56616.03;5017140;28;20282;-70
2024/01/05 05:12:15;;;;;;;12.80;8.85;;;;;;;-142.91;100.00;56616.03;5024140;28;20208;-71
2024/01/05 05:14:42;;;;;;;12.43;9.02;;;;;;;-142.91;100.00;56616.03;5020554;28;20553;-70
2024/01/05 05:17:10;;;;;;;13.55;9.18;;;;;;;-142.91;100.00;56616.03;5016490;28;20318;-71
2024/01/05 05:19:37;;;;;;;8.57;7.43;;;;;;;-142.91;100.00;56616.03;5015780;28;20195;-71
2024/01/05 05:22:03;;;;;;;13.63;8.32;;;;;;;-142.91;100.00;56616.03;5014677;28;20307;-70
2024/01/05 05:24:30;;;;;;;11.98;8.45;;;;;;;-142.91;100.00;56616.03;5014125;28;20291;-70
2024/01/05 05:26:57;;;;;;;12.68;9.07;;;;;;;-142.91;100.00;56616.03;5016607;28;20741;-71
2024/01/05 05:29:24;;;;;;;17.00;10.10;;;;;;;-142.91;100.00;56616.03;5010706;28;20287;-71
2024/01/05 05:31:51;;;;;;;16.70;9.77;;;;;;;-142.91;100.00;56616.03;5013534;28;20208;-71
2024/01/05 05:34:19;;;;;;;19.67;10.25;;;;;;;-142.91;100.00;56616.03;5015047;28;20228;-70
2024/01/05 05:36:46;;;;;;;17.63;10.82;;;;;;;-142.91;100.00;56616.03;5018049;28;20292;-70
2024/01/05 05:39:12;;;;;;;13.85;9.77;;;;;;;-142.91;100.00;56616.03;5017835;28;20295;-70
2024/01/05 05:41:39;;;;;;;15.73;10.75;;;;;;;-142.91;100.00;56616.03;5020979;28;20238;-70
2024/01/05 05:44:06;;;;;;;19.83;11.57;;;;;;;-142.91;100.00;56616.03;5020098;28;20294;-71
2024/01/05 05:46:33;;;;;;;20.40;12.20;;;;;;;-142.91;100.00;56616.03;5019228;28;20683;-69
2024/01/05 05:48:59;;;;;;;25.02;14.50;;;;;;;-142.91;100.00;56616.03;5020828;28;20279;-72
2024/01/05 05:51:27;;;;;;;22.88;14.43;;;;;;;-142.91;100.00;56616.03;5019018;28;20834;-71
2024/01/05 05:53:54;;;;;;;26.48;16.05;;;;;;;-142.91;100.00;56616.03;5013170;28;20299;-71
2024/01/05 05:56:20;;;;;;;32.13;18.63;;;;;;;-142.91;100.00;56616.03;5019033;28;21501;-71
2024/01/05 05:58:47;;;;;;;34.72;18.13;;;;;;;-142.91;100.00;56616.03;5013998;28;20319;-71
2024/01/05 06:01:16;;;;;;;31.40;18.63;;;;;;;-142.91;100.00;56616.03;5019563;28;20762;-70
2024/01/05 06:03:43;;;;;;;26.63;14.98;;;;;;;-142.91;100.00;56616.03;5013306;28;20666;-70
2024/01/05 06:06:17;;;;;;;20.05;13.93;;;;;;;-142.91;100.00;56616.03;5022487;28;20302;-72
2024/01/05 06:08:45;;;;;;;22.50;14.02;;;;;;;-142.91;100.00;56616.03;5019331;28;20200;-70
2024/01/05 06:11:13;;;;;;;30.23;18.67;;;;;;;-142.91;100.00;56616.03;5018105;28;20295;-71
2024/01/05 06:13:40;;;;;;;39.17;21.85;;;;;;;-142.91;100.00;56616.03;5023371;28;20278;-70
2024/01/05 06:16:07;;;;;;;34.50;19.90;;;;;;;-142.91;100.00;56616.03;5019278;28;20303;-70
2024/01/05 06:18:33;;;;;;;40.03;21.75;;;;;;;-142.91;100.00;56616.03;5018713;28;20303;-69
2024/01/05 06:21:00;;;;;;;36.30;23.65;;;;;;;-142.91;100.00;56616.03;5018911;28;20233;-69
2024/01/05 06:23:27;;;;;;;45.33;25.60;;;;;;;-142.91;100.00;56616.03;5016395;28;20303;-70
2024/01/05 06:25:56;;;;;;;45.45;26.17;;;;;;;-142.91;100.00;56616.03;5013735;28;20275;-71
2024/01/05 06:28:22;;;;;;;64.95;36.30;;;;;;;-142.91;100.00;56616.03;5016113;28;20209;-71
2024/01/05 06:30:49;;;;;;;63.88;31.27;;;;;;;-142.91;100.00;56616.03;5019237;28;20300;-69
2024/01/05 06:33:15;;;;;;;50.13;27.08;;;;;;;-142.91;100.00;56616.03;5015405;28;20295;-71
2024/01/05 06:35:42;;;;;;;46.83;26.45;;;;;;;-142.91;100.00;56616.03;5015642;28;20295;-71
2024/01/05 06:38:09;;;;;;;52.13;30.05;;;;;;;-142.91;100.00;56616.03;5010891;28;20319;-70
2024/01/05 06:40:35;;;;;;;55.40;30.33;;;;;;;-142.91;100.00;56616.03;5018493;28;20746;-70
2024/01/05 06:43:04;;;;;;;47.42;28.05;;;;;;;-142.91;100.00;56616.03;5017229;28;20338;-71
2024/01/05 06:45:30;;;;;;;41.70;25.83;;;;;;;-142.91;100.00;56616.03;5019169;28;20218;-70
2024/01/05 06:47:57;;;;;;;60.33;32.03;;;;;;;-142.91;100.00;56616.03;5014989;28;20204;-71
2024/01/05 06:50:25;;;;;;;86.82;43.08;;;;;;;23.25;100.00;56616.03;5013346;28;20758;-70
2024/01/05 06:52:52;;;;;;;68.60;41.42;;;;;;;-142.91;100.00;56616.03;5019891;28;20298;-70
2024/01/05 06:55:19;;;;;;;109.82;48.20;;;;;;;-142.91;100.00;56616.03;5015415;28;20287;-71
2024/01/05 06:57:47;;;;;;;79.63;41.72;;;;;;;23.90;100.00;56616.03;5017393;28;20274;-70
2024/01/05 07:00:17;;;;;;;57.75;34.45;;;;;;;-142.91;100.00;56616.03;5014187;28;20200;-70
2024/01/05 07:02:44;;;;;;;80.40;42.33;;;;;;;23.57;100.00;56616.03;5014603;28;20204;-70
2024/01/05 07:05:11;;;;;;;55.42;30.08;;;;;;;;;;5013838;28;20682;-70
2024/01/05 07:07:39;;;;;;;54.58;31.83;;;;;;;-142.91;100.00;56616.03;5020842;28;20283;-71
2024/01/05 07:10:07;;;;;;;68.50;35.75;;;;;;;-142.91;100.00;56616.03;5015939;28;20204;-72
2024/01/05 07:12:34;;;;;;;41.72;24.83;;;;;;;-142.91;100.00;56616.03;5011932;28;20203;-71
2024/01/05 07:15:00;;;;;;;47.85;27.05;;;;;;;-142.91;100.00;56616.03;5001894;28;20295;-72
2024/01/05 07:17:28;;;;;;;42.05;25.65;;;;;;;-142.91;100.00;56616.03;4989294;28;21302;-74
2024/01/05 07:19:55;;;;;;;45.20;26.50;;;;;;;-142.91;100.00;56616.03;5001737;28;20200;-74
2024/01/05 07:22:22;;;;;;;41.97;22.88;;;;;;;23.90;100.00;56616.03;5012606;28;20227;-73
2024/01/05 07:24:49;;;;;;;38.03;21.08;;;;;;;-142.91;100.00;56616.03;5012212;28;20291;-71
2024/01/05 07:27:16;;;;;;;28.58;17.75;;;;;;;-142.91;100.00;56616.03;5015285;28;20204;-73
2024/01/05 07:29:43;;;;;;;24.20;16.75;;;;;;;23.26;100.00;56616.03;5006561;28;20212;-71
2024/01/05 07:32:10;;;;;;;18.42;10.68;;;;;;;-142.91;100.00;56616.03;5013329;28;20289;-72
2024/01/05 07:34:38;;;;;;;12.30;9.77;;;;;;;-142.91;100.00;56616.03;5018684;28;20359;-72
2024/01/05 07:37:05;;;;;;;11.65;8.82;;;;;;;-142.91;100.00;56616.03;5010415;28;20201;-72
2024/01/05 07:39:32;;;;;;;24.90;14.95;;;;;;;-142.91;100.00;56616.03;5014440;28;20221;-72
2024/01/05 07:41:58;;;;;;;15.18;8.90;;;;;;;-142.91;100.00;56616.03;5016486;28;20291;-72
2024/01/05 07:44:25;;;;;;;13.80;8.82;;;;;;;-142.91;100.00;56616.03;5013809;28;20351;-71
2024/01/05 07:46:51;;;;;;;7.55;6.18;;;;;;;-142.91;100.00;56616.03;5014278;28;20295;-72
2024/01/05 07:49:18;;;;;;;6.03;4.97;;;;;;;-142.91;100.00;56616.03;5016094;28;20295;-72
2024/01/05 07:51:46;;;;;;;6.75;5.80;;;;;;;-142.91;100.00;56616.03;5011714;28;20291;-71
2024/01/05 07:54:13;;;;;;;7.97;4.22;;;;;;;-142.91;100.00;56616.03;5014970;28;20307;-72
2024/01/05 07:56:40;;;;;;;4.45;4.15;;;;;;;-142.91;100.00;56616.03;5012230;28;20257;-70
2024/01/05 07:59:06;;;;;;;9.70;5.28;;;;;;;-142.91;100.00;56616.03;5015656;28;20319;-72
2024/01/05 08:01:33;;;;;;;5.50;4.63;;;;;;;-142.91;100.00;56616.03;5012853;28;20235;-71
2024/01/05 08:03:59;;;;;;;6.07;4.85;;;;;;;-142.91;100.00;56616.03;5015488;28;20283;-71
2024/01/05 08:06:26;;;;;;;5.55;4.57;;;;;;;-142.91;100.00;56616.03;5010238;28;20292;-70
2024/01/05 08:08:54;;;;;;;4.88;4.30;;;;;;;-142.91;100.00;56616.03;5014027;28;20254;-71
2024/01/05 08:11:21;;;;;;;8.23;4.30;;;;;;;-142.91;100.00;56616.03;5020608;28;20250;-72
2024/01/05 08:13:48;;;;;;;8.02;4.57;;;;;;;-142.91;100.00;56616.03;5010089;28;20196;-72
2024/01/05 08:16:14;;;;;;;8.38;4.80;;;;;;;-142.91;100.00;56616.03;5008746;28;20291;-72
2024/01/05 08:18:41;;;;;;;10.02;4.60;;;;;;;-142.91;100.00;56616.03;5013115;28;20763;-72
2024/01/05 08:21:08;;;;;;;5.13;4.45;;;;;;;-142.91;100.00;56616.03;5011588;28;20306;-72
2024/01/05 08:23:35;;;;;;;6.50;4.00;;;;;;;-142.91;100.00;56616.03;5007922;28;20196;-71
2024/01/05 08:26:04;;;;;;;5.13;4.13;;;;;;;23.25;100.00;56616.03;5016533;28;20203;-70
2024/01/05 08:28:31;;;;;;;11.85;4.68;;;;;;;-142.91;100.00;56616.03;5017794;28;20208;-70
2024/01/05 08:30:58;;;;;;;15.13;6.95;;;;;;;-142.91;100.00;56616.03;5017809;28;20287;-71
2024/01/05 08:33:24;;;;;;;8.93;5.55;;;;;;;-142.91;100.00;56616.03;5011725;28;20250;-70
2024/01/05 08:35:51;;;;;;;4.25;3.72;;;;;;;-142.91;100.00;56616.03;5020101;28;20729;-71
2024/01/05 08:38:17;;;;;;;6.95;4.68;;;;;;;-142.91;100.00;56616.03;5020210;28;20311;-71
2024/01/05 08:40:45;;;;;;;22.42;8.93;;;;;;;-142.91;100.00;56616.03;5014258;28;20721;-71
2024/01/05 08:43:13;;;;;;;9.15;5.07;;;;;;;-142.91;100.00;56616.03;5011708;28;20219;-71
2024/01/05 08:45:39;;;;;;;9.10;4.13;;;;;;;-142.91;100.00;56616.03;5012018;28;20294;-72
2024/01/05 08:48:06;;;;;;;4.63;3.65;;;;;;;-142.91;100.00;56616.03;5008313;28;20326;-72
2024/01/05 08:50:34;;;;;;;6.35;3.58;;;;;;;-142.91;100.00;56616.03;5008494;28;20263;-71
2024/01/05 08:53:01;;;;;;;6.05;4.07;;;;;;;-142.91;100.00;56616.03;5012031;28;20231;-72
2024/01/05 08:55:28;;;;;;;5.82;3.92;;;;;;;-142.91;100.00;56616.03;5010420;28;20654;-70
2024/01/05 08:57:55;;;;;;;3.78;3.47;;;;;;;-142.91;100.00;56616.03;5011405;28;20232;-72
2024/01/05 09:00:23;;;;;;;12.40;4.32;;;;;;;23.26;100.00;56616.03;5012211;28;20728;-71
2024/01/05 09:02:50;;;;;;;10.40;5.55;;;;;;;-142.91;100.00;56616.03;5019397;28;20748;-71
2024/01/05 09:05:16;;;;;;;7.82;5.30;;;;;;;-142.91;100.00;56616.03;5016369;28;20201;-71
2024/01/05 09:07:43;;;;;;;14.20;4.10;;;;;;;-142.91;100.00;56616.03;5011918;28;20296;-70
2024/01/05 09:10:10;;;;;;;4.78;4.07;;;;;;;-142.91;100.00;56616.03;5018325;28;20682;-71
2024/01/05 09:12:38;;;;;;;4.78;4.18;;;;;;;-142.91;100.00;56616.03;5020657;28;20239;-71
2024/01/05 09:15:06;;;;;;;6.72;4.82;;;;;;;-142.91;100.00;56616.03;5016670;28;20291;-69
2024/01/05 09:17:34;;;;;;;8.52;4.55;;;;;;;-142.91;100.00;56616.03;5016745;28;20287;-71
2024/01/05 09:20:03;;;;;;;12.25;5.22;;;;;;;-142.91;100.00;56616.03;5015571;28;20252;-71
2024/01/05 09:22:29;;;;;;;13.93;5.25;;;;;;;-142.91;100.00;56616.03;5018445;28;20231;-70
2024/01/05 09:24:56;;;;;;;8.20;4.68;;;;;;;-142.91;100.00;56616.03;5019749;28;20294;-70
2024/01/05 09:27:23;;;;;;;5.88;4.80;;;;;;;-142.91;100.00;56616.03;5017274;28;20295;-71
2024/01/05 09:29:49;;;;;;;9.23;5.88;;;;;;;-142.91;100.00;56616.03;5017933;28;20326;-70
2024/01/05 09:32:16;;;;;;;7.18;4.72;;;;;;;23.25;100.00;56616.03;5020083;28;20215;-72
2024/01/05 09:34:44;;;;;;;8.88;5.90;;;;;;;-142.91;100.00;56616.03;5014258;28;20680;-70
2024/01/05 09:37:11;;;;;;;9.70;5.55;;;;;;;-142.91;100.00;56616.03;5014456;28;20299;-70
2024/01/05 09:39:38;;;;;;;8.57;6.70;;;;;;;-142.91;100.00;56616.03;5013380;28;20318;-70
2024/01/05 09:42:05;;;;;;;13.00;7.40;;;;;;;-142.91;100.00;56616.03;5012666;28;20291;-70
2024/01/05 09:44:32;;;;;;;11.32;7.90;;;;;;;-142.91;100.00;56616.03;5015027;28;20291;-70
2024/01/05 09:46:57;;;;;;;17.92;8.85;;;;;;;-142.91;100.00;56616.03;5016906;28;20211;-71
2024/01/05 09:49:24;;;;;;;10.82;8.25;;;;;;;-142.91;100.00;56616.03;5019687;28;20842;-70
2024/01/05 09:51:53;;;;;;;15.18;8.70;;;;;;;-142.91;100.00;56616.03;5019772;28;20783;-71
2024/01/05 09:54:19;;;;;;;15.27;8.35;;;;;;;-142.91;100.00;56616.03;5016152;28;20199;-72
2024/01/05 09:56:47;;;;;;;8.75;7.85;;;;;;;-142.91;100.00;56616.03;5018318;28;20742;-70
2024/01/05 09:59:17;;;;;;;11.60;8.60;;;;;;;-142.91;100.00;56616.03;5016999;28;20230;-70
2024/01/05 10:01:47;;;;;;;11.93;8.07;;;;;;;-142.91;100.00;56616.03;5014486;28;20204;-70
2024/01/05 10:04:14;;;;;;;13.48;8.43;;;;;;;-142.91;100.00;56616.03;5016894;28;20291;-69
2024/01/05 10:06:41;;;;;;;14.13;9.20;;;;;;;-142.91;100.00;56616.03;5010497;28;20721;-71
2024/01/05 10:09:09;;;;;;;16.25;8.60;;;;;;;-142.91;100.00;56616.03;5016586;28;20291;-72
2024/01/05 10:11:41;;;;;;;10.85;8.45;;;;;;;-142.91;100.00;56616.03;5010611;28;20200;-71
2024/01/05 10:14:12;;;;;;;12.85;8.48;;;;;;;-142.91;100.00;56616.03;4993848;28;20212;-71
2024/01/05 10:16:39;;;;;;;11.38;7.50;;;;;;;-142.91;100.00;56616.03;5016957;28;20208;-71
2024/01/05 10:19:13;;;;;;;10.52;7.60;;;;;;;-142.91;100.00;56616.03;5011933;28;20338;-71
2024/01/05 10:21:40;;;;;;;12.15;7.30;;;;;;;-142.91;100.00;56616.03;5016228;28;20342;-71
2024/01/05 10:24:21;;;;;;;9.52;7.55;;;;;;;-142.91;100.00;56616.03;5020022;28;20231;-71
2024/01/05 10:26:48;;;;;;;9.20;7.95;;;;;;;-142.91;100.00;56616.03;5016809;28;20210;-71
2024/01/05 10:29:15;;;;;;;20.38;10.25;;;;;;;-142.91;100.00;56616.03;5013411;28;20311;-70
2024/01/05 10:31:42;;;;;;;17.05;11.60;;;;;;;-142.91;100.00;56616.03;5015481;28;20220;-71
2024/01/05 10:34:09;;;;;;;20.95;11.25;;;;;;;-142.91;100.00;56616.03;5012244;28;20250;-70
2024/01/05 10:36:36;;;;;;;16.52;10.73;;;;;;;-142.91;100.00;56616.03;5014109;28;20196;-70
2024/01/05 10:39:04;;;;;;;16.70;11.05;;;;;;;-142.91;100.00;56616.03;5014879;28;20307;-71
2024/01/05 10:41:32;;;;;;;22.80;11.80;;;;;;;-142.91;100.00;56616.03;5018743;28;20467;-71
2024/01/05 10:43:59;;;;;;;31.00;12.38;;;;;;;-142.91;100.00;56616.03;5014363;28;20615;-71
2024/01/05 10:46:26;;;;;;;16.50;11.98;;;;;;;-142.91;100.00;56616.03;5013540;28;20662;-71
2024/01/05 10:48:54;;;;;;;19.45;11.50;;;;;;;-142.91;100.00;56616.03;5015904;28;20243;-71
2024/01/05 10:51:22;;;;;;;21.75;12.25;;;;;;;-142.91;100.00;56616.03;5016496;28;20298;-70
2024/01/05 10:53:50;;;;;;;18.02;13.00;;;;;;;-142.91;100.00;56616.03;5015375;28;20287;-71
2024/01/05 10:56:18;;;;;;;22.13;12.05;;;;;;;-142.91;100.00;56616.03;5016648;28;20296;-71
2024/01/05 10:58:48;;;;;;;23.40;11.85;;;;;;;-142.91;100.00;56616.03;5016762;28;20231;-71
2024/01/05 11:01:18;;;;;;;14.90;10.80;;;;;;;-142.91;100.00;56616.03;5012008;28;20299;-71
2024/01/05 11:03:48;;;;;;;19.23;10.50;;;;;;;-142.91;100.00;56616.03;5019243;28;20207;-71
2024/01/05 11:06:15;;;;;;;17.95;10.93;;;;;;;-142.91;100.00;56616.03;5007967;28;20299;-71